Flugplatz Nannhausen (EDRN)

Hier findest Du alle Informationen zum Flugplatz Nannhausen (EDRN).

Informationen für Piloten zum Flugplatz Nannhausen

Hier findest Du alle relevanten Informationen, die Du als Pilot benötigst, um Nannhausen anzufliegen.

Flugplatz: Nannhausen ICAO-Code: EDRN
Frequenz Turm: 130,600 Mhz GAFOR Gebiet: 41
Frequenz Ground: 130,600 Mhz Mogas: nein
Platzrunde: NW/SE 2200 ft Landegebühr: -
Platzhöhe: - Sunrise: 05:53 Uhr UTC
Pisten: 06/24 - 560 m x 30 m, GRAS Sunset: 16:37 Uhr UTC

Mitglieder, die in Nannhausen fliegen

Flugwetter am Flugplatz Nannhausen

Die METAR Information stammen aus EDFH (15.56 km entfernt).

METAR Code:
2019/10/14 11:50
EDFH 141150Z 19012KT CAVOK 20/12 Q1013

Flugschulen am Flugplatz Nannhausen

Am Flugplatz Nannhausen gibt es leider keine Flugschule.

Benachbarte Flugplätze und Flugschulen

Es gibt 20 weitere Flugplätze in einem Umkreis von 50 km um den Flugplatz Nannhausen.

Jetzt anmelden

Passwort vergessen

Anzeige: Skymap
Umfrage Archiv

Werdet Ihr Euer UL im Zuge der 600 kg MTOW auflasten lassen?

Ja, bei Kosten bis max. 5.000 Euro
43.6 %
Nein
32.7 %
Ja, bei Kosten bis max. 7.500 Euro
9 %
Ja, unabhängig von den Kosten
7.7 %
Ja, bei Kosten bis max. 10.000 Euro
7.1 %
Stimmen: 156 | Diskussion
Anzeige: Roland Aircraft
Statistik Alle Mitglieder

Aktuell sind 37 Besucher online, davon 2 Mitglieder und 35 Gäste.


Mitglieder online:
suchoi27  Chris_EDNC 

Anzeige: VFR Sprechfunk Simulator


Anzeige: Pocket FMS